Greeley, CO

3:55 AM MDT on August 20, 2014 (GMT -0600)
Fort Collins-Loveland Municipal | Change Station
CLOSE
Current Station
Airport
Location: Fort Collins,
Elevation: 5016 ft
Nearby Weather Stations

Elev 5016 ft 40.45 °N, 105.01 °W | Updated 20 minutes ago

Scattered Clouds
Scattered Clouds
66 °F
Feels Like 66 °F
N
5
Wind Variable Wind from North

Today
High -- | Low -- °F
--% Chance of Precip.
Yesterday
High -- | Low -- °F
Precip. -- in
6:14 AM 7:48 PM
Waning Crescent, 23% visible
Pressure 29.91 in
Visibility 10.0 miles
Clouds Scattered Clouds 12000 ft
Dew Point 52 °F
Humidity 60%
Rainfall 0.00 in
Snow Depth Not available.
UV 0 out of 12
Pollen 9.60 out of 12
Air Quality Not available.
Flu Activity Not available.
METAR KFNL 200935Z AUTO 36004KT 10SM SCT120 19/11 A2991 RMK AO1

More Conditions Fewer Conditions

Pressure 29.91 in
Visibility 10.0 miles
Clouds Scattered Clouds 12000 ft
Dew Point 52 °F
Humidity 60%
Rainfall 0.00 in
Snow Depth Not available.
UV 0 out of 12
Pollen 9.60 out of 12
Air Quality Not available.
Flu Activity Not available.
METAR KFNL 200935Z AUTO 36004KT 10SM SCT120 19/11 A2991 RMK AO1

More Conditions Fewer Conditions

10-Day Weather Forecast

Almanac

Astronomy

Aug. 20, 2014 Rise Set
Actual Time 6:14 AM MDT 7:48 PM MDT
Civil Twilight 5:45 AM MDT 8:17 PM MDT
Nautical Twilight 5:11 AM MDT 8:52 PM MDT
Astronomical Twilight 4:34 AM MDT 9:28 PM MDT
Moon 1:56 AM MDT 4:36 PM MDT
Length of Visible Light 14h 31m
Length of Day
13h 34m
Tomorrow will be 2m 25s shorter.
Waning Crescent, 23% of the Moon is Illuminated
Today
Waning Crescent
Aug 25
New
Sep 2
First Quarter
Sep 8
Full
Sep 15
Last Quarter

Today's Extremes

State Highs State Lows

Community

WunderPhotos

Upload Photos

1,745,604 photos uploaded!

Nearby

Air Quality

  Air Quality AQ Index Pollutant
Yesterday Moderate
OZONE
Yesterday Good
PM2.5
Wednesday Good
PM2.5
Wednesday Good
OZONE

Snow Depth

Station Depth Elevation
Copeland Lake 0 in 8600 ft
Wild Basin 0 in 9560 ft
Niwot 0 in 9910 ft
University Camp 0 in 10300 ft
Willow Park 0 in 10700 ft

Earthquake Activity

City Distance Mag. Time & Date
No recent earthquake activity has been reported nearby.
Minimum magnitude displayed is 2.5.

Coastal Water Temperatures

Place Temperature
No Stations Reporting

Nearby Weather Stations